Time;durP1;ratioP1;P1;durP2;ratioP2;P2;SDS_P1;SDS_P2;PMS_P1;PMS_P2;Temp;Humidity;BMP_temperature;BMP_pressure;BME280_temperature;BME280_humidity;BME280_pressure;Samples;Min_cycle;Max_cycle;Signal;HPM_P1;HPM_P2
2022/05/21 00:01:25;;;;;;;9.13;8.20;;;19.10;59.00;;;;;;5010306;28;20410;-77
2022/05/21 00:03:51;;;;;;;8.98;8.13;;;19.00;59.30;;;;;;5004824;28;20466;-77
2022/05/21 00:06:19;;;;;;;12.30;8.40;;;19.00;59.60;;;;;;5010549;28;20021;-78
2022/05/21 00:08:45;;;;;;;8.80;8.00;;;19.00;59.80;;;;;;5011250;28;20034;-78
2022/05/21 00:11:11;;;;;;;9.45;8.15;;;19.00;59.90;;;;;;5009529;28;20042;-77
2022/05/21 00:13:37;;;;;;;8.88;8.05;;;18.90;60.00;;;;;;5008655;28;20034;-76
2022/05/21 00:16:05;;;;;;;10.65;8.20;;;18.90;60.30;;;;;;5012037;28;20033;-77
2022/05/21 00:18:32;;;;;;;9.18;7.70;;;18.90;60.50;;;;;;5007393;28;20034;-77
2022/05/21 00:20:58;;;;;;;9.93;7.50;;;18.90;60.80;;;;;;4992124;28;20105;-77
2022/05/21 00:23:29;;;;;;;9.60;7.78;;;18.90;60.90;;;;;;5008184;28;20026;-77
2022/05/21 00:26:04;;;;;;;8.43;7.57;;;18.80;61.20;;;;;;5008677;28;20021;-77
2022/05/21 00:28:30;;;;;;;9.88;7.93;;;18.70;61.40;;;;;;5009256;28;20026;-77
2022/05/21 00:30:57;;;;;;;11.55;8.40;;;18.70;61.70;;;;;;5010957;28;20041;-77
2022/05/21 00:33:23;;;;;;;11.95;8.13;;;18.60;62.10;;;;;;5005206;28;20515;-77
2022/05/21 00:35:49;;;;;;;8.90;8.18;;;18.60;62.40;;;;;;5010266;28;20033;-77
2022/05/21 00:38:16;;;;;;;8.90;8.02;;;18.60;62.60;;;;;;4991222;28;20045;-77
2022/05/21 00:40:42;;;;;;;8.80;7.93;;;18.60;63.00;;;;;;5009898;28;20057;-77
2022/05/21 00:43:38;;;;;;;9.40;8.35;;;18.60;62.70;;;;;;4991662;28;20121;-77
2022/05/21 00:46:06;;;;;;;10.25;8.02;;;18.60;63.00;;;;;;5010449;28;20042;-77
2022/05/21 00:48:33;;;;;;;9.40;8.30;;;18.60;62.80;;;;;;5009029;28;20112;-77
2022/05/21 00:50:59;;;;;;;11.50;8.98;;;18.50;62.90;;;;;;5010396;28;20030;-77
2022/05/21 00:53:25;;;;;;;8.82;7.93;;;18.50;63.10;;;;;;4993597;28;20094;-77
2022/05/21 00:55:51;;;;;;;9.40;8.57;;;18.40;63.20;;;;;;4997298;28;20657;-77
2022/05/21 01:01:04;;;;;;;9.65;8.63;;;18.30;63.60;;;;;;5012616;28;20419;-77
2022/05/21 01:03:30;;;;;;;9.25;8.30;;;18.20;64.00;;;;;;4991663;28;20045;-77
2022/05/21 01:05:57;;;;;;;10.65;8.88;;;18.20;64.40;;;;;;5008757;28;20372;-77
2022/05/21 01:08:23;;;;;;;9.98;8.70;;;18.20;64.20;;;;;;5007190;28;20030;-77
2022/05/21 01:10:53;;;;;;;9.65;8.57;;;18.20;64.30;;;;;;5008326;28;20510;-77
2022/05/21 01:13:21;;;;;;;10.02;8.23;;;18.20;64.20;;;;;;4999627;28;20061;-77
2022/05/21 01:15:49;;;;;;;8.95;8.05;;;18.10;64.30;;;;;;4993198;28;20030;-77
2022/05/21 01:18:15;;;;;;;9.13;7.80;;;18.10;64.30;;;;;;5008110;28;20033;-77
2022/05/21 01:20:47;;;;;;;9.63;8.15;;;18.00;64.30;;;;;;5008247;28;20372;-77
2022/05/21 01:23:14;;;;;;;9.02;7.72;;;18.00;64.40;;;;;;5007068;28;21238;-77
2022/05/21 01:25:41;;;;;;;8.73;7.80;;;17.90;64.40;;;;;;5007090;28;20042;-77
2022/05/21 01:28:16;;;;;;;8.98;7.80;;;17.90;64.20;;;;;;5009302;28;20046;-77
2022/05/21 01:30:49;;;;;;;8.35;7.30;;;17.90;64.40;;;;;;5007291;28;20501;-77
2022/05/21 01:33:18;;;;;;;8.70;7.82;;;17.90;64.20;;;;;;5003336;28;20041;-75
2022/05/21 01:35:45;;;;;;;9.95;8.00;;;17.80;64.20;;;;;;5008982;28;20033;-75
2022/05/21 01:38:12;;;;;;;9.98;7.63;;;17.80;64.40;;;;;;4992657;28;20065;-75
2022/05/21 01:40:38;;;;;;;10.57;8.20;;;17.80;64.30;;;;;;4999404;28;20092;-77
2022/05/21 01:45:52;;;;;;;10.70;8.43;;;17.70;64.70;;;;;;5009244;28;20085;-77
2022/05/21 01:48:22;;;;;;;9.80;8.50;;;17.70;64.60;;;;;;5007992;28;20033;-77
2022/05/21 01:50:49;;;;;;;9.45;8.48;;;17.60;64.80;;;;;;4991901;28;20228;-77
2022/05/21 01:53:15;;;;;;;10.23;8.80;;;17.60;64.70;;;;;;5023148;28;20044;-77
2022/05/21 01:55:42;;;;;;;10.02;8.23;;;17.60;64.80;;;;;;4979498;28;20052;-78
2022/05/21 01:58:09;;;;;;;10.75;7.97;;;17.50;64.80;;;;;;5012195;28;20026;-77
2022/05/21 02:00:35;;;;;;;11.40;8.60;;;17.60;64.80;;;;;;5007703;28;20049;-77
2022/05/21 02:03:01;;;;;;;12.43;9.18;;;17.50;64.70;;;;;;5004572;28;20083;-77
2022/05/21 02:05:27;;;;;;;10.27;9.43;;;17.40;65.10;;;;;;4984267;28;20038;-77
2022/05/21 02:07:53;;;;;;;10.80;9.80;;;17.40;65.80;;;;;;5003799;28;20038;-78
2022/05/21 02:10:19;;;;;;;10.38;9.38;;;17.30;65.90;;;;;;4997203;28;20046;-78
2022/05/21 02:12:45;;;;;;;9.80;8.75;;;17.30;65.90;;;;;;5011891;28;20046;-77
2022/05/21 02:15:11;;;;;;;9.98;9.02;;;17.30;66.10;;;;;;5025313;28;20041;-78
2022/05/21 02:17:37;;;;;;;10.20;9.25;;;17.30;66.20;;;;;;5010121;28;20045;-77
2022/05/21 02:20:04;;;;;;;10.50;9.43;;;17.20;66.10;;;;;;5006123;28;20034;-77
2022/05/21 02:22:30;;;;;;;10.23;8.63;;;17.20;66.10;;;;;;5005700;28;20814;-78
2022/05/21 02:24:56;;;;;;;10.38;8.68;;;17.30;66.00;;;;;;4991399;28;20047;-78
2022/05/21 02:27:22;;;;;;;11.93;8.68;;;17.20;65.80;;;;;;5008781;28;20030;-78
2022/05/21 02:29:48;;;;;;;10.57;9.50;;;17.20;66.10;;;;;;5003042;28;20033;-78
2022/05/21 02:32:14;;;;;;;9.27;8.35;;;17.10;66.30;;;;;;4991674;28;20052;-78
2022/05/21 02:34:42;;;;;;;10.00;8.50;;;17.10;66.60;;;;;;4988167;28;20053;-77
2022/05/21 02:39:53;;;;;;;8.88;8.00;;;17.10;66.70;;;;;;5018901;28;20411;-77
2022/05/21 02:45:04;;;;;;;12.77;8.80;;;17.10;67.10;;;;;;5011760;28;20041;-78
2022/05/21 02:47:30;;;;;;;10.85;8.45;;;17.10;67.10;;;;;;5012072;28;20041;-77
2022/05/21 02:49:57;;;;;;;10.48;8.43;;;17.00;67.00;;;;;;5009856;28;20037;-77
2022/05/21 02:52:23;;;;;;;9.77;8.80;;;16.90;67.10;;;;;;5012069;28;20042;-77
2022/05/21 02:54:49;;;;;;;15.15;8.80;;;16.90;67.50;;;;;;4995188;28;20053;-77
2022/05/21 02:57:15;;;;;;;11.43;8.75;;;16.80;67.60;;;;;;4994526;28;20042;-77
2022/05/21 02:59:41;;;;;;;11.52;8.52;;;16.70;67.70;;;;;;4994368;28;20485;-77
2022/05/21 03:02:08;;;;;;;11.05;8.43;;;16.70;67.70;;;;;;5011290;28;20034;-77
2022/05/21 03:04:34;;;;;;;12.88;9.02;;;16.70;67.60;;;;;;5011317;28;20046;-76
2022/05/21 03:07:00;;;;;;;10.45;8.30;;;16.70;67.60;;;;;;5013203;28;20030;-77
2022/05/21 03:12:11;;;;;;;8.52;7.70;;;16.70;67.60;;;;;;5012693;28;20041;-77
2022/05/21 03:14:38;;;;;;;11.95;8.23;;;16.70;67.50;;;;;;5011007;28;20045;-77
2022/05/21 03:17:04;;;;;;;11.93;8.75;;;16.70;67.60;;;;;;5008077;28;20057;-77
2022/05/21 03:19:31;;;;;;;9.02;7.85;;;16.70;67.70;;;;;;4995206;28;20037;-77
2022/05/21 03:21:58;;;;;;;9.35;8.13;;;16.70;67.70;;;;;;5010595;28;20030;-77
2022/05/21 03:24:24;;;;;;;8.73;7.88;;;16.60;68.80;;;;;;5001277;28;20041;-76
2022/05/21 03:26:50;;;;;;;8.68;7.85;;;16.30;69.80;;;;;;5005798;28;20041;-77
2022/05/21 03:29:16;;;;;;;9.95;7.93;;;16.10;71.10;;;;;;5008712;28;20383;-77
2022/05/21 03:31:42;;;;;;;8.35;7.55;;;15.90;71.70;;;;;;4997679;28;20037;-77
2022/05/21 03:34:09;;;;;;;8.20;7.40;;;15.50;73.10;;;;;;4995039;28;20039;-76
2022/05/21 03:36:35;;;;;;;9.40;8.40;;;15.30;74.10;;;;;;5009007;28;20037;-76
2022/05/21 03:39:01;;;;;;;11.35;8.98;;;15.20;74.70;;;;;;4993130;28;20037;-75
2022/05/21 03:41:27;;;;;;;9.52;8.63;;;15.30;73.80;;;;;;5010578;28;20038;-74
2022/05/21 03:43:55;;;;;;;9.00;8.30;;;15.50;73.30;;;;;;5010027;28;20493;-75
2022/05/21 03:46:21;;;;;;;11.63;8.48;;;15.70;72.90;;;;;;5011664;28;20030;-75
2022/05/21 03:48:47;;;;;;;10.13;8.73;;;15.70;72.40;;;;;;5012080;28;20042;-75
2022/05/21 03:51:13;;;;;;;9.48;8.38;;;15.80;71.40;;;;;;5008260;28;20033;-75
2022/05/21 03:53:40;;;;;;;9.18;8.27;;;15.90;71.20;;;;;;5010790;28;20402;-74
2022/05/21 03:56:06;;;;;;;13.18;9.32;;;15.90;70.80;;;;;;5009242;28;20022;-75
2022/05/21 03:58:32;;;;;;;11.68;8.52;;;16.00;70.50;;;;;;5010108;28;20038;-75
2022/05/21 04:00:58;;;;;;;10.63;8.73;;;16.00;70.20;;;;;;4992227;28;20034;-74
2022/05/21 04:03:25;;;;;;;12.20;9.65;;;16.10;69.90;;;;;;5008485;28;20030;-75
2022/05/21 04:05:54;;;;;;;14.35;9.98;;;16.10;69.70;;;;;;4992808;28;20018;-74
2022/05/21 04:08:20;;;;;;;12.40;10.15;;;16.10;69.60;;;;;;5010648;28;20022;-75
2022/05/21 04:10:46;;;;;;;13.25;10.32;;;16.10;69.40;;;;;;5010521;28;20023;-74
2022/05/21 04:13:12;;;;;;;12.63;9.75;;;16.10;69.10;;;;;;5008852;28;20042;-75
2022/05/21 04:15:38;;;;;;;10.98;10.05;;;16.00;69.10;;;;;;5009996;28;20511;-74
2022/05/21 04:18:05;;;;;;;12.25;9.63;;;16.00;69.20;;;;;;5006789;28;20037;-75
2022/05/21 04:20:31;;;;;;;11.32;10.18;;;16.00;69.10;;;;;;5013329;28;20034;-73
2022/05/21 04:22:57;;;;;;;11.73;9.60;;;16.00;69.00;;;;;;5011787;28;20033;-73
2022/05/21 04:25:23;;;;;;;11.18;10.15;;;16.00;69.20;;;;;;5005867;28;20026;-74
2022/05/21 04:27:49;;;;;;;12.93;9.27;;;16.00;69.30;;;;;;4989277;28;20506;-75
2022/05/21 04:30:20;;;;;;;10.30;9.10;;;15.90;69.30;;;;;;4987091;28;20029;-75
2022/05/21 04:32:46;;;;;;;9.88;9.07;;;15.90;69.60;;;;;;4999979;28;20304;-75
2022/05/21 04:35:13;;;;;;;12.23;9.32;;;15.90;69.40;;;;;;4991428;28;20403;-74
2022/05/21 04:37:39;;;;;;;12.25;9.70;;;15.90;69.60;;;;;;4991062;28;20022;-73
2022/05/21 04:40:07;;;;;;;12.13;9.18;;;15.90;69.60;;;;;;5009707;28;20046;-74
2022/05/21 04:42:33;;;;;;;12.15;9.57;;;15.90;69.60;;;;;;4992030;28;20407;-74
2022/05/21 04:44:59;;;;;;;11.45;10.13;;;16.00;69.80;;;;;;5008445;28;20097;-73
2022/05/21 04:47:25;;;;;;;14.98;12.20;;;16.00;69.80;;;;;;5008538;28;20041;-74
2022/05/21 04:49:51;;;;;;;14.27;10.35;;;16.00;69.50;;;;;;5007173;28;20387;-72
2022/05/21 04:52:17;;;;;;;11.27;10.20;;;15.90;70.10;;;;;;5009587;28;20041;-72
2022/05/21 04:54:44;;;;;;;12.15;9.85;;;15.90;70.00;;;;;;4989652;28;20049;-72
2022/05/21 04:57:10;;;;;;;10.35;9.40;;;15.90;70.10;;;;;;5024498;28;20491;-72
2022/05/21 04:59:36;;;;;;;14.77;9.45;;;15.90;70.30;;;;;;4992953;28;20045;-71
2022/05/21 05:02:02;;;;;;;12.02;9.32;;;15.90;70.30;;;;;;5007794;28;20488;-72
2022/05/21 05:04:28;;;;;;;12.02;9.80;;;15.90;70.30;;;;;;4992887;28;20038;-72
2022/05/21 05:06:54;;;;;;;11.20;9.27;;;15.90;70.50;;;;;;5005805;28;20049;-73
2022/05/21 05:09:22;;;;;;;10.32;8.93;;;15.90;70.70;;;;;;5007451;28;20029;-73
2022/05/21 05:11:50;;;;;;;10.98;9.60;;;15.90;71.00;;;;;;4977150;28;20034;-72
2022/05/21 05:14:16;;;;;;;13.40;9.50;;;16.00;71.40;;;;;;5005610;28;20037;-73
2022/05/21 05:16:42;;;;;;;14.70;10.57;;;16.10;72.10;;;;;;5006338;28;20482;-74
2022/05/21 05:19:08;;;;;;;12.65;11.50;;;16.20;73.20;;;;;;5011247;28;20034;-72
2022/05/21 05:21:34;;;;;;;12.63;11.60;;;16.30;73.00;;;;;;5010049;28;20034;-73
2022/05/21 05:24:00;;;;;;;11.63;10.43;;;16.30;73.10;;;;;;5012178;28;20025;-73
2022/05/21 05:26:26;;;;;;;13.90;9.32;;;16.40;73.10;;;;;;5011207;28;20471;-80
2022/05/21 05:28:52;;;;;;;9.43;8.55;;;16.50;72.70;;;;;;5006358;28;20037;-73
2022/05/21 05:31:19;;;;;;;14.30;8.93;;;16.70;72.10;;;;;;5009948;28;20403;-72
2022/05/21 05:33:45;;;;;;;9.23;8.38;;;17.00;71.60;;;;;;4990202;28;20068;-73
2022/05/21 05:36:11;;;;;;;14.95;8.88;;;17.00;70.90;;;;;;5010419;28;20030;-73
2022/05/21 05:38:37;;;;;;;11.23;9.82;;;17.20;70.90;;;;;;5012242;28;20033;-73
2022/05/21 05:41:06;;;;;;;9.43;8.43;;;17.30;70.10;;;;;;5010265;28;20042;-72
2022/05/21 05:43:32;;;;;;;12.10;8.55;;;17.30;69.60;;;;;;5010503;28;20057;-73
2022/05/21 05:45:58;;;;;;;12.07;8.48;;;17.30;69.70;;;;;;5008389;28;20037;-74
2022/05/21 05:48:25;;;;;;;9.98;9.07;;;17.50;69.50;;;;;;5013271;28;20029;-72
2022/05/21 05:50:51;;;;;;;9.75;8.68;;;17.80;69.00;;;;;;5011333;28;20026;-73
2022/05/21 05:53:17;;;;;;;11.18;9.60;;;17.80;67.90;;;;;;5010191;28;20064;-73
2022/05/21 05:55:43;;;;;;;13.25;9.20;;;17.80;67.90;;;;;;5006623;28;20356;-73
2022/05/21 06:00:54;;;;;;;11.23;9.40;;;18.00;67.70;;;;;;5015723;28;20533;-73
2022/05/21 06:03:21;;;;;;;10.80;9.65;;;18.10;66.80;;;;;;5005598;28;20101;-73
2022/05/21 06:05:49;;;;;;;11.25;10.10;;;18.20;67.10;;;;;;5010249;28;20030;-72
2022/05/21 06:08:15;;;;;;;10.98;9.90;;;18.40;66.30;;;;;;4989896;28;20037;-73
2022/05/21 06:10:43;;;;;;;13.13;10.45;;;18.60;66.20;;;;;;5006321;28;20049;-73
2022/05/21 06:13:10;;;;;;;12.75;10.35;;;18.60;65.40;;;;;;5018222;28;20423;-73
2022/05/21 06:15:37;;;;;;;12.07;10.48;;;18.80;65.50;;;;;;5020323;28;20040;-73
2022/05/21 06:18:07;;;;;;;11.13;10.00;;;18.90;65.20;;;;;;5018955;28;20394;-73
2022/05/21 06:20:33;;;;;;;13.15;10.70;;;18.70;64.80;;;;;;5009359;28;20026;-75
2022/05/21 06:23:00;;;;;;;11.40;10.40;;;18.70;65.10;;;;;;4978754;28;20038;-74
2022/05/21 06:25:29;;;;;;;10.82;9.90;;;18.90;64.90;;;;;;5014966;28;20045;-80
2022/05/21 06:27:55;;;;;;;12.90;10.20;;;18.80;65.10;;;;;;5011312;28;20037;-80
2022/05/21 06:30:22;;;;;;;11.07;10.00;;;18.90;66.20;;;;;;5009006;28;20038;-80
2022/05/21 06:32:48;;;;;;;12.70;10.43;;;19.10;65.20;;;;;;5012128;28;20030;-80
2022/05/21 06:35:15;;;;;;;12.25;10.30;;;19.10;64.30;;;;;;5011010;28;20030;-79
2022/05/21 06:37:41;;;;;;;15.70;10.82;;;19.10;64.90;;;;;;5009451;28;20033;-78
2022/05/21 06:40:08;;;;;;;14.60;10.73;;;19.20;64.80;;;;;;5012415;28;20045;-80
2022/05/21 06:42:34;;;;;;;11.80;10.70;;;19.30;64.20;;;;;;4992985;28;20036;-80
2022/05/21 06:45:00;;;;;;;13.88;11.20;;;19.40;63.20;;;;;;5002464;28;20030;-82
2022/05/21 06:47:27;;;;;;;15.68;11.02;;;19.50;63.60;;;;;;5009639;28;20510;-78
2022/05/21 06:49:55;;;;;;;14.13;11.57;;;19.70;62.20;;;;;;5008289;28;20041;-81
2022/05/21 06:52:24;;;;;;;12.05;10.93;;;19.70;62.80;;;;;;4991327;28;20967;-79
2022/05/21 06:54:51;;;;;;;14.10;11.30;;;19.70;62.40;;;;;;5011455;28;20048;-77
2022/05/21 06:57:18;;;;;;;12.60;10.93;;;19.50;63.20;;;;;;5010031;28;20468;-76
2022/05/21 06:59:44;;;;;;;12.18;10.98;;;19.50;62.30;;;;;;5009492;28;20033;-77
2022/05/21 07:02:10;;;;;;;13.23;10.82;;;19.50;62.70;;;;;;5010260;28;20053;-77
2022/05/21 07:07:34;;;;;;;13.82;10.65;;;19.60;62.20;;;;;;5014070;28;20053;-76
2022/05/21 07:10:06;;;;;;;13.85;10.85;;;19.70;62.20;;;;;;5011634;28;20017;-77
2022/05/21 07:12:32;;;;;;;12.63;11.50;;;19.80;61.50;;;;;;5009632;28;20042;-77
2022/05/21 07:14:58;;;;;;;13.02;11.65;;;19.80;62.00;;;;;;5010570;28;20046;-77
2022/05/21 07:17:25;;;;;;;13.57;11.65;;;20.00;61.60;;;;;;5009858;28;20034;-76
2022/05/21 07:19:51;;;;;;;13.95;11.95;;;20.00;61.60;;;;;;5009242;28;20034;-76
2022/05/21 07:22:17;;;;;;;13.40;12.30;;;20.10;60.80;;;;;;5012467;28;20026;-77
2022/05/21 07:24:43;;;;;;;13.07;12.07;;;20.20;60.60;;;;;;5009604;28;20034;-77
2022/05/21 07:27:12;;;;;;;15.98;13.18;;;20.50;60.80;;;;;;5010233;28;20033;-77
2022/05/21 07:29:41;;;;;;;13.00;11.90;;;20.60;60.30;;;;;;5008660;28;20026;-76
2022/05/21 07:32:16;;;;;;;13.57;12.35;;;20.60;59.80;;;;;;5008355;28;20046;-77
2022/05/21 07:34:42;;;;;;;15.15;12.65;;;20.80;59.90;;;;;;4993845;28;20041;-77
2022/05/21 07:37:09;;;;;;;13.45;12.02;;;20.90;60.00;;;;;;5012204;28;20090;-77
2022/05/21 07:39:35;;;;;;;16.92;12.35;;;21.00;59.30;;;;;;4994871;28;20546;-76
2022/05/21 07:42:01;;;;;;;13.88;12.57;;;21.10;59.20;;;;;;5009743;28;20046;-77
2022/05/21 07:44:27;;;;;;;14.13;12.40;;;21.30;58.80;;;;;;5008735;28;20053;-77
2022/05/21 07:46:53;;;;;;;14.02;12.70;;;21.50;59.60;;;;;;5009114;28;20511;-77
2022/05/21 07:49:19;;;;;;;16.35;12.93;;;21.70;57.80;;;;;;5010974;28;20029;-77
2022/05/21 07:51:45;;;;;;;14.10;12.90;;;21.70;58.00;;;;;;5009502;28;20026;-77
2022/05/21 07:54:11;;;;;;;14.35;13.13;;;21.70;57.90;;;;;;4994554;28;20046;-77
2022/05/21 07:56:38;;;;;;;14.18;12.77;;;21.60;58.10;;;;;;5009704;28;20034;-77
2022/05/21 07:59:04;;;;;;;14.68;13.27;;;21.70;58.70;;;;;;5008629;28;20041;-77
2022/05/21 08:01:30;;;;;;;14.88;12.88;;;21.60;58.10;;;;;;5011131;28;20034;-77
2022/05/21 08:03:56;;;;;;;13.70;12.40;;;21.50;58.50;;;;;;5010824;28;20045;-77
2022/05/21 08:06:22;;;;;;;13.65;12.52;;;21.40;58.80;;;;;;5009384;28;20034;-77
2022/05/21 08:08:51;;;;;;;14.05;12.95;;;21.50;58.90;;;;;;5009443;28;20045;-76
2022/05/21 08:11:17;;;;;;;15.18;13.70;;;21.70;58.20;;;;;;5009365;28;20048;-77
2022/05/21 08:13:43;;;;;;;14.45;13.25;;;22.00;57.90;;;;;;4994101;28;20049;-77
2022/05/21 08:16:09;;;;;;;14.73;13.32;;;22.10;56.70;;;;;;5012014;28;20037;-77
2022/05/21 08:18:35;;;;;;;14.70;13.35;;;22.10;57.90;;;;;;5007804;28;20042;-77
2022/05/21 08:21:01;;;;;;;15.40;14.25;;;22.30;57.30;;;;;;5007960;28;20485;-77
2022/05/21 08:28:57;;;;;;;14.88;13.63;;;22.60;55.40;;;;;;4999512;28;20494;-77
2022/05/21 08:31:23;;;;;;;14.80;13.80;;;22.50;55.90;;;;;;4992731;28;20045;-77
2022/05/21 08:33:49;;;;;;;15.48;14.38;;;22.50;54.70;;;;;;4992085;28;20053;-78
2022/05/21 08:36:15;;;;;;;16.33;14.73;;;22.60;54.00;;;;;;5008660;28;20499;-77
2022/05/21 08:38:41;;;;;;;16.45;15.10;;;22.80;53.70;;;;;;4986891;28;20030;-77
2022/05/21 08:41:27;;;;;;;16.05;14.73;;;22.90;53.40;;;;;;5007596;28;20042;-77
2022/05/21 08:44:07;;;;;;;16.00;14.85;;;23.10;53.50;;;;;;4979424;28;20054;-77
2022/05/21 08:46:43;;;;;;;16.45;15.32;;;23.30;53.90;;;;;;5008293;28;20053;-77
2022/05/21 08:49:31;;;;;;;17.15;15.73;;;23.40;52.60;;;;;;5010845;28;20033;-77
2022/05/21 08:52:15;;;;;;;16.88;15.50;;;23.60;52.70;;;;;;5010249;28;20356;-77
2022/05/21 08:54:45;;;;;;;16.52;15.20;;;23.70;51.70;;;;;;5010175;28;20057;-77
2022/05/21 08:57:25;;;;;;;17.20;16.00;;;24.00;53.40;;;;;;4993124;28;20037;-77
2022/05/21 09:00:21;;;;;;;17.90;16.40;;;24.00;50.50;;;;;;5007282;28;20030;-77
2022/05/21 09:02:48;;;;;;;16.90;15.77;;;24.00;50.30;;;;;;5005952;28;20026;-77
2022/05/21 09:05:15;;;;;;;16.27;14.85;;;23.90;50.90;;;;;;4977646;28;20049;-77
2022/05/21 09:08:07;;;;;;;16.45;15.35;;;24.00;50.80;;;;;;4991329;28;20019;-77
2022/05/21 09:11:12;;;;;;;16.85;15.63;;;24.10;50.50;;;;;;4993035;28;20034;-77
2022/05/21 09:13:44;;;;;;;17.60;16.13;;;24.00;51.10;;;;;;4977715;28;20054;-77
2022/05/21 09:18:56;;;;;;;15.82;14.73;;;24.20;49.50;;;;;;5014910;28;20057;-77
2022/05/21 09:21:23;;;;;;;16.65;15.32;;;24.30;50.20;;;;;;4986182;28;20030;-77
2022/05/21 09:24:03;;;;;;;16.80;15.50;;;24.20;50.40;;;;;;5007214;28;20037;-77
2022/05/21 09:26:48;;;;;;;16.67;15.27;;;24.40;50.10;;;;;;4986215;28;20034;-77
2022/05/21 09:29:35;;;;;;;15.13;13.93;;;24.50;49.90;;;;;;5006498;28;20399;-77
2022/05/21 09:32:30;;;;;;;17.60;15.80;;;24.60;49.90;;;;;;5006332;28;20387;-77
2022/05/21 09:35:05;;;;;;;16.85;15.52;;;24.80;50.10;;;;;;4992761;28;20034;-77
2022/05/21 09:37:31;;;;;;;16.60;15.38;;;24.90;48.30;;;;;;4993198;28;20391;-77
2022/05/21 09:39:57;;;;;;;18.27;16.92;;;24.80;48.40;;;;;;4993701;28;20042;-78
2022/05/21 09:45:22;;;;;;;16.75;15.60;;;24.60;49.60;;;;;;5007431;28;20041;-77
2022/05/21 09:47:49;;;;;;;15.93;14.63;;;24.50;48.90;;;;;;5007464;28;20364;-78
2022/05/21 09:50:20;;;;;;;16.33;14.75;;;24.60;48.80;;;;;;4986031;28;20034;-77
2022/05/21 09:52:49;;;;;;;16.05;14.95;;;24.70;48.60;;;;;;4960045;28;20038;-77
2022/05/21 09:55:27;;;;;;;15.25;14.13;;;24.80;47.40;;;;;;4993785;28;20136;-76
2022/05/21 09:57:54;;;;;;;15.88;14.57;;;25.10;46.40;;;;;;5009808;28;20379;-77
2022/05/21 10:00:24;;;;;;;15.85;14.70;;;24.90;46.10;;;;;;4985135;28;20114;-77
2022/05/21 10:02:53;;;;;;;15.20;14.20;;;25.10;47.10;;;;;;4992587;28;20049;-76
2022/05/21 10:05:35;;;;;;;15.30;14.30;;;25.20;46.40;;;;;;5006170;28;20049;-77
2022/05/21 10:12:17;;;;;;;16.08;15.00;;;25.30;45.10;;;;;;4989204;28;20049;-77
2022/05/21 10:14:51;;;;;;;15.93;14.82;;;25.40;45.90;;;;;;4970301;28;20419;-77
2022/05/21 10:17:42;;;;;;;15.60;14.20;;;25.50;45.60;;;;;;4975290;28;20041;-77
2022/05/21 10:20:14;;;;;;;16.30;15.13;;;25.50;45.70;;;;;;4978138;28;20042;-77
2022/05/21 10:23:17;;;;;;;16.15;15.02;;;25.50;46.00;;;;;;4990607;28;20435;-77
2022/05/21 10:26:20;;;;;;;15.93;14.68;;;25.60;45.80;;;;;;5007736;28;20034;-77
2022/05/21 10:28:58;;;;;;;15.05;13.95;;;25.90;47.00;;;;;;4975071;28;20537;-77
2022/05/21 10:31:29;;;;;;;16.35;15.35;;;26.00;45.50;;;;;;4974316;28;20042;-77
2022/05/21 10:34:03;;;;;;;16.73;15.40;;;25.90;45.90;;;;;;4992257;28;20057;-77
2022/05/21 10:36:51;;;;;;;16.45;15.25;;;26.00;45.40;;;;;;4992060;28;20467;-77
2022/05/21 10:39:29;;;;;;;18.52;17.02;;;26.00;45.60;;;;;;4993773;28;20137;-77
2022/05/21 10:42:11;;;;;;;16.50;15.07;;;26.00;45.60;;;;;;5007131;28;20042;-77
2022/05/21 10:44:57;;;;;;;16.58;15.57;;;26.20;46.30;;;;;;4991227;28;22467;-77
2022/05/21 10:48:00;;;;;;;16.80;15.50;;;26.30;45.30;;;;;;4973802;28;20030;-77
2022/05/21 10:51:19;;;;;;;17.08;15.70;;;26.30;44.20;;;;;;5008436;28;20041;-77
2022/05/21 10:53:53;;;;;;;17.70;16.38;;;26.30;45.30;;;;;;5019109;28;20045;-77
2022/05/21 10:56:50;;;;;;;16.88;15.77;;;26.30;45.00;;;;;;5008956;28;20045;-77
2022/05/21 10:59:35;;;;;;;16.27;15.13;;;26.20;44.60;;;;;;5027847;28;20132;-77
2022/05/21 11:02:19;;;;;;;16.08;15.07;;;26.50;43.80;;;;;;5026791;28;20041;-77
2022/05/21 11:04:56;;;;;;;17.05;15.85;;;26.40;44.70;;;;;;5027249;28;20041;-77
2022/05/21 11:07:48;;;;;;;16.83;15.65;;;26.40;44.10;;;;;;5027555;28;20125;-77
2022/05/21 11:10:38;;;;;;;17.35;16.25;;;26.30;44.90;;;;;;5016909;28;20057;-77
2022/05/21 11:13:07;;;;;;;16.67;15.57;;;26.50;43.70;;;;;;5030673;28;20026;-77
2022/05/21 11:15:48;;;;;;;15.73;14.73;;;26.40;43.80;;;;;;5027268;28;20572;-78
2022/05/21 11:18:18;;;;;;;;;;;26.30;44.00;;;;;;4999272;28;20038;-78
2022/05/21 11:20:54;;;;;;;15.73;14.63;;;26.50;44.90;;;;;;4994292;28;19920;-77
2022/05/21 11:23:26;;;;;;;16.50;15.30;;;26.60;44.20;;;;;;5030081;28;20033;-77
2022/05/21 11:25:57;;;;;;;17.08;15.80;;;26.60;43.60;;;;;;5011632;28;20026;-77
2022/05/21 11:28:49;;;;;;;16.23;14.98;;;26.40;44.70;;;;;;4995312;28;20037;-77
2022/05/21 11:39:39;;;;;;;16.88;15.77;;;26.50;43.90;;;;;;4990373;28;20044;-78
2022/05/21 11:42:05;;;;;;;16.45;15.15;;;26.70;43.10;;;;;;4994900;28;20045;-77
2022/05/21 11:44:57;;;;;;;15.38;14.40;;;26.80;42.80;;;;;;5010069;28;20034;-77
2022/05/21 11:47:26;;;;;;;16.83;15.70;;;26.70;43.20;;;;;;4985795;28;20049;-77
2022/05/21 11:50:02;;;;;;;17.27;15.73;;;26.60;43.00;;;;;;5008982;28;20042;-77
2022/05/21 11:52:28;;;;;;;17.27;16.27;;;26.60;42.40;;;;;;5012219;28;20387;-77
2022/05/21 11:54:54;;;;;;;17.52;16.45;;;26.90;41.90;;;;;;5010390;28;20050;-77
2022/05/21 11:57:39;;;;;;;16.15;14.93;;;27.00;41.90;;;;;;5009731;28;20037;-77
2022/05/21 12:00:17;;;;;;;15.48;14.48;;;27.10;42.10;;;;;;4995481;28;20368;-76
2022/05/21 12:02:54;;;;;;;17.27;16.00;;;27.00;41.00;;;;;;5009549;28;20033;-77
2022/05/21 12:05:37;;;;;;;18.05;16.95;;;27.00;41.30;;;;;;5010718;28;20034;-77
2022/05/21 12:08:17;;;;;;;17.48;16.23;;;27.20;40.50;;;;;;5009267;28;20034;-77
2022/05/21 12:11:04;;;;;;;17.45;16.35;;;27.00;41.90;;;;;;5008283;28;20375;-78
2022/05/21 12:13:33;;;;;;;17.73;16.45;;;27.00;41.60;;;;;;5009709;28;20030;-77
2022/05/21 12:16:20;;;;;;;17.25;15.73;;;27.10;40.60;;;;;;5010780;28;20538;-77
2022/05/21 12:18:57;;;;;;;16.95;15.75;;;27.00;41.00;;;;;;5011208;28;20042;-77
2022/05/21 12:21:30;;;;;;;17.23;16.13;;;27.00;41.90;;;;;;4977829;28;20077;-77
2022/05/21 12:23:58;;;;;;;17.23;16.13;;;27.10;41.30;;;;;;5010206;28;20044;-77
2022/05/21 12:26:38;;;;;;;17.48;16.38;;;27.10;41.00;;;;;;5010445;28;20557;-77
2022/05/21 12:29:15;;;;;;;17.17;16.00;;;27.30;41.30;;;;;;4975291;28;20042;-77
2022/05/21 12:31:56;;;;;;;17.42;16.23;;;27.20;42.20;;;;;;4976837;28;20029;-78
2022/05/21 12:34:34;;;;;;;16.40;15.50;;;27.20;41.50;;;;;;5007329;28;20037;-77
2022/05/21 12:37:08;;;;;;;16.33;15.32;;;27.10;40.70;;;;;;5010756;28;20033;-77
2022/05/21 12:39:53;;;;;;;17.40;16.08;;;26.90;41.50;;;;;;5007125;28;20034;-77
2022/05/21 12:42:25;;;;;;;16.55;15.55;;;27.10;41.40;;;;;;5008738;28;20399;-77
2022/05/21 12:44:51;;;;;;;15.95;14.95;;;27.10;41.30;;;;;;5007568;28;20022;-77
2022/05/21 12:47:32;;;;;;;17.63;16.48;;;27.30;43.00;;;;;;4990988;28;20040;-77
2022/05/21 12:49:58;;;;;;;19.02;17.92;;;27.50;41.70;;;;;;4994678;28;20034;-77
2022/05/21 12:52:29;;;;;;;18.02;16.83;;;27.60;40.70;;;;;;4976743;28;20044;-77
2022/05/21 12:55:22;;;;;;;17.67;16.48;;;27.50;40.90;;;;;;5008535;28;20871;-77
2022/05/21 12:57:53;;;;;;;16.17;15.27;;;27.50;40.60;;;;;;4994174;28;20403;-77
2022/05/21 13:00:21;;;;;;;16.45;15.45;;;27.40;40.90;;;;;;4992008;28;20030;-77
2022/05/21 13:02:49;;;;;;;18.15;17.05;;;27.40;40.60;;;;;;5007360;28;20382;-77
2022/05/21 13:05:22;;;;;;;21.15;20.05;;;27.50;39.80;;;;;;5007441;28;20022;-77
2022/05/21 13:07:49;;;;;;;17.77;16.67;;;27.40;39.20;;;;;;4991384;28;20061;-77
2022/05/21 13:10:26;;;;;;;16.05;14.95;;;27.20;38.70;;;;;;4978219;28;20045;-77
2022/05/21 13:12:59;;;;;;;18.00;17.00;;;27.20;39.10;;;;;;4993935;28;20093;-77
2022/05/21 13:15:32;;;;;;;18.30;17.00;;;27.30;39.00;;;;;;4994081;28;20044;-77
2022/05/21 13:18:22;;;;;;;17.80;16.73;;;27.70;40.20;;;;;;4970514;28;20038;-78
2022/05/21 13:21:08;;;;;;;19.45;18.25;;;27.70;40.30;;;;;;4992584;28;20473;-77
2022/05/21 13:23:59;;;;;;;17.77;16.58;;;27.50;39.40;;;;;;5005851;28;20037;-77
2022/05/21 13:26:27;;;;;;;16.30;15.25;;;27.60;40.10;;;;;;5008245;28;20479;-77
2022/05/21 13:29:15;;;;;;;16.30;15.20;;;27.50;41.10;;;;;;4974510;28;20483;-77
2022/05/21 13:31:41;;;;;;;16.85;15.55;;;27.50;40.90;;;;;;4991077;28;20026;-77
2022/05/21 13:34:08;;;;;;;16.77;15.77;;;27.50;40.60;;;;;;5009701;28;20545;-77